Airfield :
LOGIN :

Register | Disclaimer

   EN    FR    IT 

 










Legend :    VFR   Marginal VFR   IFR   Intensive IFR   Very Intensive IFR
Visi :
Ceiling :
>= 8 km
>= 3000ft
5 to 8 km
1000 to 3000 ft
1500m to 5 km
500 to 1000 ft
800 to 1500m
200 to 500 ft
< 800m
< 200 ft
Symbols :   Thunderstorms  Fog  Heavy snow  Heavy precipitations  Wind > 20 kt
SIGMETs :     Misc.  Thunderstorms  Icing  Turbulence  Mountain Waves  Volcanic Ashes






- Airport Elevation : 27 ft
- IATA code : PMI


LEPA - Palma de Mallorca

CURRENT METAR :
  • 311700Z 24008KT 9999 FEW020 29/24 Q1006 NOSIG

EXPIRED METARs :
  • 311630Z 23009KT 190V250 9999 FEW020 29/23 Q1007 NOSIG
  • 311600Z 22009KT 190V250 9999 FEW020 30/24 Q1007 NOSIG
  • 311530Z 22010KT 170V250 9999 FEW020 30/24 Q1007 NOSIG
  • 311500Z 22012KT 190V250 9999 FEW020 31/24 Q1008 NOSIG

TAF TAF LEPA
Valid from the 31 at 18:00 until the 01 at 18:00 UTC


311700Z 3118/0118 VRB04KT 9999 FEW020 TX29/0112Z TN20/0106Z
PROB30
TEMPO 3118/3124 06015G35KT 3000 TSRA FEW020CB
BECMG 0108/0110 22010KT



MET'MAP, your aeronautical weather chart ! - Copyright ORBIFLY December 2007 - Disclaimer

ORBIFLY MET'MAP TEAM :

Programming & Development : Alexandra Zaïnal
Concept & original design : Baudouin d'Aumeries
Assistance for programming : Marc-Olivier Méhu
Technical & hardware support : Manuel Goepfert

Contact : metmap@orbifly.com




SOURCES & CREDITS :

   NOAA